sensor_id;sensor_type;location;lat;lon;timestamp;pressure;altitude;pressure_sealevel;temperature;humidity
77153;BME280;66124;51.146;17.072;2023-08-30T00:02:13;99233.67;;;15.29;85.55
77153;BME280;66124;51.146;17.072;2023-08-30T00:04:43;99234.30;;;15.28;85.26
77153;BME280;66124;51.146;17.072;2023-08-30T00:07:12;99237.46;;;15.27;85.36
77153;BME280;66124;51.146;17.072;2023-08-30T00:09:41;99241.38;;;15.28;85.57
77153;BME280;66124;51.146;17.072;2023-08-30T00:12:11;99240.88;;;15.29;85.59
77153;BME280;66124;51.146;17.072;2023-08-30T00:14:40;99244.38;;;15.29;85.58
77153;BME280;66124;51.146;17.072;2023-08-30T00:17:09;99245.65;;;15.27;85.60
77153;BME280;66124;51.146;17.072;2023-08-30T00:19:39;99251.73;;;15.26;85.68
77153;BME280;66124;51.146;17.072;2023-08-30T00:22:08;99256.34;;;15.25;85.79
77153;BME280;66124;51.146;17.072;2023-08-30T00:24:37;99258.16;;;15.24;85.71
77153;BME280;66124;51.146;17.072;2023-08-30T00:27:07;99260.73;;;15.22;85.62
77153;BME280;66124;51.146;17.072;2023-08-30T00:29:36;99260.91;;;15.21;85.79
77153;BME280;66124;51.146;17.072;2023-08-30T00:32:05;99257.49;;;15.20;85.77
77153;BME280;66124;51.146;17.072;2023-08-30T00:39:42;99254.54;;;15.23;85.73
77153;BME280;66124;51.146;17.072;2023-08-30T00:42:11;99252.18;;;15.20;85.61
77153;BME280;66124;51.146;17.072;2023-08-30T00:44:41;99248.72;;;15.20;85.84
77153;BME280;66124;51.146;17.072;2023-08-30T00:47:10;99248.56;;;15.17;85.73
77153;BME280;66124;51.146;17.072;2023-08-30T00:49:41;99245.91;;;15.15;85.75
77153;BME280;66124;51.146;17.072;2023-08-30T00:52:11;99244.70;;;15.14;85.95
77153;BME280;66124;51.146;17.072;2023-08-30T00:54:40;99233.08;;;15.11;86.08
77153;BME280;66124;51.146;17.072;2023-08-30T00:57:10;99226.25;;;15.09;86.05
77153;BME280;66124;51.146;17.072;2023-08-30T00:59:40;99222.35;;;15.07;86.01
77153;BME280;66124;51.146;17.072;2023-08-30T01:02:10;99229.04;;;15.04;86.15
77153;BME280;66124;51.146;17.072;2023-08-30T01:04:40;99234.20;;;15.01;86.23
77153;BME280;66124;51.146;17.072;2023-08-30T01:07:09;99234.07;;;14.99;86.32
77153;BME280;66124;51.146;17.072;2023-08-30T01:09:38;99234.75;;;14.98;86.24
77153;BME280;66124;51.146;17.072;2023-08-30T01:12:12;99234.23;;;14.96;86.28
77153;BME280;66124;51.146;17.072;2023-08-30T01:14:50;99239.13;;;14.97;86.29
77153;BME280;66124;51.146;17.072;2023-08-30T01:17:23;99238.41;;;14.98;86.42
77153;BME280;66124;51.146;17.072;2023-08-30T01:19:58;99237.42;;;14.99;86.32
77153;BME280;66124;51.146;17.072;2023-08-30T01:22:40;99241.20;;;15.00;86.45
77153;BME280;66124;51.146;17.072;2023-08-30T01:25:20;99245.08;;;15.01;86.50
77153;BME280;66124;51.146;17.072;2023-08-30T01:27:54;99256.07;;;15.02;86.45
77153;BME280;66124;51.146;17.072;2023-08-30T01:30:25;99261.32;;;15.03;86.36
77153;BME280;66124;51.146;17.072;2023-08-30T01:32:54;99256.20;;;15.02;86.38
77153;BME280;66124;51.146;17.072;2023-08-30T01:35:24;99268.13;;;15.02;86.57
77153;BME280;66124;51.146;17.072;2023-08-30T01:37:54;99264.23;;;15.01;86.28
77153;BME280;66124;51.146;17.072;2023-08-30T01:40:23;99266.46;;;15.01;86.49
77153;BME280;66124;51.146;17.072;2023-08-30T01:42:54;99265.73;;;15.01;86.36
77153;BME280;66124;51.146;17.072;2023-08-30T01:45:25;99268.91;;;15.01;86.38
77153;BME280;66124;51.146;17.072;2023-08-30T01:47:56;99269.44;;;14.99;86.44
77153;BME280;66124;51.146;17.072;2023-08-30T01:50:24;99264.48;;;14.98;86.40
77153;BME280;66124;51.146;17.072;2023-08-30T01:52:52;99260.08;;;14.98;86.28
77153;BME280;66124;51.146;17.072;2023-08-30T02:03:16;99256.00;;;14.99;86.34
77153;BME280;66124;51.146;17.072;2023-08-30T02:05:51;99251.22;;;14.98;86.22
77153;BME280;66124;51.146;17.072;2023-08-30T02:08:24;99256.96;;;14.97;86.18
77153;BME280;66124;51.146;17.072;2023-08-30T02:10:59;99260.25;;;14.96;86.18
77153;BME280;66124;51.146;17.072;2023-08-30T02:13:31;99257.52;;;14.95;86.01
77153;BME280;66124;51.146;17.072;2023-08-30T02:16:02;99253.75;;;14.93;86.10
77153;BME280;66124;51.146;17.072;2023-08-30T02:18:32;99257.60;;;14.92;86.06
77153;BME280;66124;51.146;17.072;2023-08-30T02:21:02;99258.37;;;14.90;86.09
77153;BME280;66124;51.146;17.072;2023-08-30T02:23:32;99257.44;;;14.90;86.11
77153;BME280;66124;51.146;17.072;2023-08-30T02:26:01;99258.52;;;14.88;86.09
77153;BME280;66124;51.146;17.072;2023-08-30T02:28:30;99253.17;;;14.88;86.17
77153;BME280;66124;51.146;17.072;2023-08-30T02:31:00;99250.23;;;14.90;86.00
77153;BME280;66124;51.146;17.072;2023-08-30T02:33:29;99249.02;;;14.90;86.08
77153;BME280;66124;51.146;17.072;2023-08-30T02:35:58;99247.55;;;14.89;86.02
77153;BME280;66124;51.146;17.072;2023-08-30T02:38:28;99247.72;;;14.87;86.07
77153;BME280;66124;51.146;17.072;2023-08-30T02:40:57;99239.99;;;14.86;86.16
77153;BME280;66124;51.146;17.072;2023-08-30T02:43:27;99242.77;;;14.85;86.10
77153;BME280;66124;51.146;17.072;2023-08-30T02:45:56;99240.48;;;14.84;86.10
77153;BME280;66124;51.146;17.072;2023-08-30T02:48:26;99243.16;;;14.83;86.11
77153;BME280;66124;51.146;17.072;2023-08-30T02:50:55;99238.95;;;14.82;86.18
77153;BME280;66124;51.146;17.072;2023-08-30T02:53:24;99240.67;;;14.81;86.06
77153;BME280;66124;51.146;17.072;2023-08-30T02:55:54;99232.40;;;14.79;85.98
77153;BME280;66124;51.146;17.072;2023-08-30T02:58:23;99232.85;;;14.78;86.00
77153;BME280;66124;51.146;17.072;2023-08-30T03:00:54;99234.91;;;14.77;86.01
77153;BME280;66124;51.146;17.072;2023-08-30T03:03:23;99233.04;;;14.77;86.14
77153;BME280;66124;51.146;17.072;2023-08-30T03:05:52;99226.77;;;14.76;86.22
77153;BME280;66124;51.146;17.072;2023-08-30T03:08:22;99226.42;;;14.77;86.05
77153;BME280;66124;51.146;17.072;2023-08-30T03:10:51;99221.39;;;14.78;86.13
77153;BME280;66124;51.146;17.072;2023-08-30T03:13:21;99221.83;;;14.78;86.13
77153;BME280;66124;51.146;17.072;2023-08-30T03:15:48;99219.12;;;14.79;86.19
77153;BME280;66124;51.146;17.072;2023-08-30T03:23:27;99218.33;;;14.77;85.89
77153;BME280;66124;51.146;17.072;2023-08-30T03:25:56;99217.23;;;14.72;86.33
77153;BME280;66124;51.146;17.072;2023-08-30T03:28:26;99216.99;;;14.69;86.29
77153;BME280;66124;51.146;17.072;2023-08-30T03:30:55;99210.10;;;14.64;86.27
77153;BME280;66124;51.146;17.072;2023-08-30T03:33:25;99210.92;;;14.61;86.27
77153;BME280;66124;51.146;17.072;2023-08-30T03:35:54;99218.95;;;14.59;86.42
77153;BME280;66124;51.146;17.072;2023-08-30T03:38:27;99223.52;;;14.58;86.32
77153;BME280;66124;51.146;17.072;2023-08-30T03:40:56;99228.45;;;14.55;86.43
77153;BME280;66124;51.146;17.072;2023-08-30T03:43:26;99231.65;;;14.54;86.47
77153;BME280;66124;51.146;17.072;2023-08-30T03:45:55;99231.39;;;14.54;86.50
77153;BME280;66124;51.146;17.072;2023-08-30T03:48:24;99225.84;;;14.53;86.54
77153;BME280;66124;51.146;17.072;2023-08-30T03:50:54;99219.79;;;14.51;86.49
77153;BME280;66124;51.146;17.072;2023-08-30T03:53:24;99219.16;;;14.49;86.63
77153;BME280;66124;51.146;17.072;2023-08-30T03:55:54;99223.07;;;14.48;86.68
77153;BME280;66124;51.146;17.072;2023-08-30T03:58:23;99223.50;;;14.46;86.84
77153;BME280;66124;51.146;17.072;2023-08-30T04:00:52;99223.41;;;14.44;86.91
77153;BME280;66124;51.146;17.072;2023-08-30T04:03:22;99223.87;;;14.44;86.93
77153;BME280;66124;51.146;17.072;2023-08-30T04:05:56;99225.98;;;14.43;86.88
77153;BME280;66124;51.146;17.072;2023-08-30T04:08:26;99229.14;;;14.44;86.93
77153;BME280;66124;51.146;17.072;2023-08-30T04:10:55;99224.80;;;14.44;86.97
77153;BME280;66124;51.146;17.072;2023-08-30T04:13:24;99218.27;;;14.44;86.95
77153;BME280;66124;51.146;17.072;2023-08-30T04:15:54;99218.64;;;14.45;86.97
77153;BME280;66124;51.146;17.072;2023-08-30T04:18:23;99222.89;;;14.47;86.91
77153;BME280;66124;51.146;17.072;2023-08-30T04:20:52;99226.07;;;14.49;86.92
77153;BME280;66124;51.146;17.072;2023-08-30T04:23:22;99230.69;;;14.51;86.97
77153;BME280;66124;51.146;17.072;2023-08-30T04:25:52;99230.12;;;14.54;86.88
77153;BME280;66124;51.146;17.072;2023-08-30T04:28:22;99230.40;;;14.56;86.93
77153;BME280;66124;51.146;17.072;2023-08-30T04:30:54;99233.77;;;14.60;86.85
77153;BME280;66124;51.146;17.072;2023-08-30T04:33:22;99237.67;;;14.63;86.81
77153;BME280;66124;51.146;17.072;2023-08-30T04:35:51;99243.14;;;14.66;86.73
77153;BME280;66124;51.146;17.072;2023-08-30T04:47:48;99241.02;;;14.68;86.71
77153;BME280;66124;51.146;17.072;2023-08-30T04:50:18;99242.58;;;14.65;86.67
77153;BME280;66124;51.146;17.072;2023-08-30T04:52:47;99242.91;;;14.65;86.75
77153;BME280;66124;51.146;17.072;2023-08-30T04:55:17;99241.27;;;14.65;86.76
77153;BME280;66124;51.146;17.072;2023-08-30T04:57:46;99237.41;;;14.64;86.77
77153;BME280;66124;51.146;17.072;2023-08-30T05:00:18;99235.39;;;14.63;86.98
77153;BME280;66124;51.146;17.072;2023-08-30T05:02:48;99233.52;;;14.63;86.81
77153;BME280;66124;51.146;17.072;2023-08-30T05:05:17;99236.45;;;14.63;86.63
77153;BME280;66124;51.146;17.072;2023-08-30T05:07:47;99237.93;;;14.64;86.79
77153;BME280;66124;51.146;17.072;2023-08-30T05:10:16;99236.33;;;14.65;86.69
77153;BME280;66124;51.146;17.072;2023-08-30T05:12:46;99237.08;;;14.67;86.73
77153;BME280;66124;51.146;17.072;2023-08-30T05:15:15;99235.02;;;14.71;86.74
77153;BME280;66124;51.146;17.072;2023-08-30T05:17:45;99223.79;;;14.71;86.69
77153;BME280;66124;51.146;17.072;2023-08-30T05:20:14;99223.77;;;14.77;86.70
77153;BME280;66124;51.146;17.072;2023-08-30T05:22:43;99227.06;;;14.80;86.70
77153;BME280;66124;51.146;17.072;2023-08-30T05:25:13;99238.31;;;14.82;86.59
77153;BME280;66124;51.146;17.072;2023-08-30T05:27:43;99234.87;;;14.84;86.56
77153;BME280;66124;51.146;17.072;2023-08-30T05:30:13;99229.04;;;14.87;86.63
77153;BME280;66124;51.146;17.072;2023-08-30T05:32:43;99209.55;;;14.80;86.58
77153;BME280;66124;51.146;17.072;2023-08-30T05:35:12;99219.23;;;14.93;86.59
77153;BME280;66124;51.146;17.072;2023-08-30T05:37:42;99218.57;;;14.96;86.37
77153;BME280;66124;51.146;17.072;2023-08-30T05:40:12;99218.98;;;14.98;86.31
77153;BME280;66124;51.146;17.072;2023-08-30T05:42:42;99221.96;;;14.98;86.44
77153;BME280;66124;51.146;17.072;2023-08-30T05:45:12;99224.63;;;14.99;86.36
77153;BME280;66124;51.146;17.072;2023-08-30T05:47:41;99229.71;;;15.03;86.25
77153;BME280;66124;51.146;17.072;2023-08-30T05:50:11;99226.38;;;15.08;86.52
77153;BME280;66124;51.146;17.072;2023-08-30T05:52:40;99227.83;;;15.12;86.22
77153;BME280;66124;51.146;17.072;2023-08-30T05:55:10;99228.52;;;15.13;86.28
77153;BME280;66124;51.146;17.072;2023-08-30T05:57:38;99237.34;;;15.17;86.19
77153;BME280;66124;51.146;17.072;2023-08-30T06:00:07;99240.36;;;15.19;85.94
77153;BME280;66124;51.146;17.072;2023-08-30T06:06:58;99238.77;;;15.34;85.75
77153;BME280;66124;51.146;17.072;2023-08-30T06:09:28;99239.98;;;15.35;85.65
77153;BME280;66124;51.146;17.072;2023-08-30T06:11:57;99239.95;;;15.36;85.66
77153;BME280;66124;51.146;17.072;2023-08-30T06:14:27;99238.80;;;15.38;85.63
77153;BME280;66124;51.146;17.072;2023-08-30T06:16:56;99241.63;;;15.40;85.40
77153;BME280;66124;51.146;17.072;2023-08-30T06:19:27;99246.38;;;15.42;85.50
77153;BME280;66124;51.146;17.072;2023-08-30T06:21:56;99252.41;;;15.43;85.51
77153;BME280;66124;51.146;17.072;2023-08-30T06:24:26;99256.81;;;15.43;85.23
77153;BME280;66124;51.146;17.072;2023-08-30T06:26:55;99254.00;;;15.44;85.19
77153;BME280;66124;51.146;17.072;2023-08-30T06:29:24;99255.80;;;15.44;84.99
77153;BME280;66124;51.146;17.072;2023-08-30T06:31:54;99251.04;;;15.46;84.90
77153;BME280;66124;51.146;17.072;2023-08-30T06:34:23;99253.35;;;15.49;84.98
77153;BME280;66124;51.146;17.072;2023-08-30T06:36:53;99256.26;;;15.50;84.90
77153;BME280;66124;51.146;17.072;2023-08-30T06:39:22;99255.12;;;15.52;84.76
77153;BME280;66124;51.146;17.072;2023-08-30T06:41:51;99257.98;;;15.52;84.72
77153;BME280;66124;51.146;17.072;2023-08-30T06:44:21;99267.34;;;15.53;84.57
77153;BME280;66124;51.146;17.072;2023-08-30T06:46:50;99265.33;;;15.54;84.62
77153;BME280;66124;51.146;17.072;2023-08-30T06:49:20;99266.05;;;15.53;84.32
77153;BME280;66124;51.146;17.072;2023-08-30T06:51:49;99269.33;;;15.53;84.40
77153;BME280;66124;51.146;17.072;2023-08-30T06:54:18;99270.46;;;15.53;84.40
77153;BME280;66124;51.146;17.072;2023-08-30T06:56:58;99270.52;;;15.53;84.38
77153;BME280;66124;51.146;17.072;2023-08-30T06:59:28;99273.55;;;15.51;84.04
77153;BME280;66124;51.146;17.072;2023-08-30T07:01:57;99272.83;;;15.50;84.27
77153;BME280;66124;51.146;17.072;2023-08-30T07:04:27;99273.56;;;15.49;84.16
77153;BME280;66124;51.146;17.072;2023-08-30T07:06:56;99273.70;;;15.51;84.24
77153;BME280;66124;51.146;17.072;2023-08-30T07:09:26;99274.23;;;15.53;84.17
77153;BME280;66124;51.146;17.072;2023-08-30T07:11:55;99280.58;;;15.57;84.09
77153;BME280;66124;51.146;17.072;2023-08-30T07:14:24;99285.42;;;15.60;83.94
77153;BME280;66124;51.146;17.072;2023-08-30T07:16:54;99284.06;;;15.56;83.92
77153;BME280;66124;51.146;17.072;2023-08-30T07:19:21;99287.88;;;15.55;83.89
77153;BME280;66124;51.146;17.072;2023-08-30T07:27:50;99296.02;;;15.56;83.58
77153;BME280;66124;51.146;17.072;2023-08-30T07:30:20;99295.41;;;15.55;83.68
77153;BME280;66124;51.146;17.072;2023-08-30T07:32:50;99296.86;;;15.58;83.61
77153;BME280;66124;51.146;17.072;2023-08-30T07:35:19;99293.81;;;15.62;83.38
77153;BME280;66124;51.146;17.072;2023-08-30T07:37:48;99293.36;;;15.66;83.21
77153;BME280;66124;51.146;17.072;2023-08-30T07:40:19;99298.08;;;15.67;83.17
77153;BME280;66124;51.146;17.072;2023-08-30T07:42:48;99301.45;;;15.66;83.12
77153;BME280;66124;51.146;17.072;2023-08-30T07:45:18;99305.86;;;15.61;82.87
77153;BME280;66124;51.146;17.072;2023-08-30T07:47:48;99304.38;;;15.56;82.81
77153;BME280;66124;51.146;17.072;2023-08-30T07:50:17;99308.05;;;15.54;82.68
77153;BME280;66124;51.146;17.072;2023-08-30T07:52:47;99306.64;;;15.56;82.59
77153;BME280;66124;51.146;17.072;2023-08-30T07:55:17;99309.66;;;15.67;82.90
77153;BME280;66124;51.146;17.072;2023-08-30T07:57:47;99313.18;;;15.78;82.68
77153;BME280;66124;51.146;17.072;2023-08-30T08:00:17;99314.98;;;15.88;82.44
77153;BME280;66124;51.146;17.072;2023-08-30T08:02:46;99309.80;;;15.95;82.11
77153;BME280;66124;51.146;17.072;2023-08-30T08:05:16;99303.66;;;16.02;81.99
77153;BME280;66124;51.146;17.072;2023-08-30T08:07:45;99305.70;;;16.06;81.46
77153;BME280;66124;51.146;17.072;2023-08-30T08:10:15;99301.45;;;16.06;81.36
77153;BME280;66124;51.146;17.072;2023-08-30T08:12:44;99302.10;;;16.04;81.22
77153;BME280;66124;51.146;17.072;2023-08-30T08:15:13;99307.44;;;15.99;80.97
77153;BME280;66124;51.146;17.072;2023-08-30T08:17:43;99311.14;;;15.92;80.87
77153;BME280;66124;51.146;17.072;2023-08-30T08:20:13;99309.89;;;15.86;80.90
77153;BME280;66124;51.146;17.072;2023-08-30T08:22:42;99308.63;;;15.81;80.80
77153;BME280;66124;51.146;17.072;2023-08-30T08:25:13;99306.15;;;15.79;80.86
77153;BME280;66124;51.146;17.072;2023-08-30T08:27:42;99308.92;;;15.80;80.83
77153;BME280;66124;51.146;17.072;2023-08-30T08:30:13;99304.61;;;15.80;80.81
77153;BME280;66124;51.146;17.072;2023-08-30T08:32:45;99305.16;;;15.81;80.95
77153;BME280;66124;51.146;17.072;2023-08-30T08:35:15;99312.19;;;15.84;81.02
77153;BME280;66124;51.146;17.072;2023-08-30T08:37:42;99310.05;;;15.84;81.05
77153;BME280;66124;51.146;17.072;2023-08-30T08:40:11;99311.23;;;15.86;81.03
77153;BME280;66124;51.146;17.072;2023-08-30T08:50:14;99329.38;;;15.87;80.74
77153;BME280;66124;51.146;17.072;2023-08-30T08:52:43;99334.13;;;15.86;80.69
77153;BME280;66124;51.146;17.072;2023-08-30T08:55:13;99337.86;;;15.84;80.88
77153;BME280;66124;51.146;17.072;2023-08-30T08:57:44;99346.63;;;15.79;80.75
77153;BME280;66124;51.146;17.072;2023-08-30T09:00:15;99344.42;;;15.70;80.59
77153;BME280;66124;51.146;17.072;2023-08-30T09:02:44;99350.95;;;15.65;80.83
77153;BME280;66124;51.146;17.072;2023-08-30T09:05:15;99345.00;;;15.62;80.84
77153;BME280;66124;51.146;17.072;2023-08-30T09:07:44;99348.65;;;15.59;80.73
77153;BME280;66124;51.146;17.072;2023-08-30T09:10:14;99349.30;;;15.57;80.63
77153;BME280;66124;51.146;17.072;2023-08-30T09:12:43;99354.94;;;15.59;80.75
77153;BME280;66124;51.146;17.072;2023-08-30T09:15:13;99352.21;;;15.63;81.00
77153;BME280;66124;51.146;17.072;2023-08-30T09:17:42;99344.98;;;15.69;80.95
77153;BME280;66124;51.146;17.072;2023-08-30T09:20:13;99342.40;;;15.75;80.75
77153;BME280;66124;51.146;17.072;2023-08-30T09:22:43;99344.79;;;15.79;80.52
77153;BME280;66124;51.146;17.072;2023-08-30T09:25:24;99344.60;;;15.85;80.65
77153;BME280;66124;51.146;17.072;2023-08-30T09:27:58;99348.33;;;15.90;80.46
77153;BME280;66124;51.146;17.072;2023-08-30T09:30:28;99352.64;;;15.93;80.52
77153;BME280;66124;51.146;17.072;2023-08-30T09:33:02;99353.14;;;15.93;80.53
77153;BME280;66124;51.146;17.072;2023-08-30T09:35:31;99350.53;;;15.87;79.93
77153;BME280;66124;51.146;17.072;2023-08-30T09:38:01;99354.13;;;15.81;80.16
77153;BME280;66124;51.146;17.072;2023-08-30T09:40:30;99355.11;;;15.74;80.17
77153;BME280;66124;51.146;17.072;2023-08-30T09:43:01;99348.83;;;15.67;80.26
77153;BME280;66124;51.146;17.072;2023-08-30T09:45:31;99351.66;;;15.68;80.31
77153;BME280;66124;51.146;17.072;2023-08-30T09:48:02;99342.55;;;15.64;80.29
77153;BME280;66124;51.146;17.072;2023-08-30T09:50:34;99348.24;;;15.67;80.60
77153;BME280;66124;51.146;17.072;2023-08-30T09:53:07;99344.50;;;15.68;80.72
77153;BME280;66124;51.146;17.072;2023-08-30T09:55:37;99343.27;;;15.72;80.55
77153;BME280;66124;51.146;17.072;2023-08-30T09:58:07;99339.18;;;15.73;80.39
77153;BME280;66124;51.146;17.072;2023-08-30T10:00:37;99339.34;;;15.75;80.40
77153;BME280;66124;51.146;17.072;2023-08-30T10:03:05;99335.40;;;15.80;80.74
77153;BME280;66124;51.146;17.072;2023-08-30T10:12:12;99334.95;;;16.14;80.44
77153;BME280;66124;51.146;17.072;2023-08-30T10:14:41;99337.84;;;16.15;80.11
77153;BME280;66124;51.146;17.072;2023-08-30T10:17:13;99341.16;;;16.15;80.12
77153;BME280;66124;51.146;17.072;2023-08-30T10:19:45;99343.11;;;16.09;80.00
77153;BME280;66124;51.146;17.072;2023-08-30T10:22:15;99348.84;;;16.03;80.19
77153;BME280;66124;51.146;17.072;2023-08-30T10:24:48;99347.82;;;15.99;80.10
77153;BME280;66124;51.146;17.072;2023-08-30T10:27:19;99350.16;;;16.00;80.37
77153;BME280;66124;51.146;17.072;2023-08-30T10:29:50;99342.23;;;16.02;80.35
77153;BME280;66124;51.146;17.072;2023-08-30T10:32:22;99338.83;;;16.08;80.13
77153;BME280;66124;51.146;17.072;2023-08-30T10:34:52;99334.03;;;16.18;80.03
77153;BME280;66124;51.146;17.072;2023-08-30T10:37:25;99332.70;;;16.30;79.90
77153;BME280;66124;51.146;17.072;2023-08-30T10:40:00;99334.79;;;16.41;79.94
77153;BME280;66124;51.146;17.072;2023-08-30T10:42:30;99336.67;;;16.50;79.62
77153;BME280;66124;51.146;17.072;2023-08-30T10:45:01;99336.52;;;16.62;79.58
77153;BME280;66124;51.146;17.072;2023-08-30T10:47:34;99333.65;;;16.71;79.20
77153;BME280;66124;51.146;17.072;2023-08-30T10:50:06;99333.09;;;16.76;79.39
77153;BME280;66124;51.146;17.072;2023-08-30T10:52:36;99336.22;;;16.78;78.78
77153;BME280;66124;51.146;17.072;2023-08-30T10:55:10;99345.04;;;16.77;78.55
77153;BME280;66124;51.146;17.072;2023-08-30T10:57:43;99345.21;;;16.75;78.87
77153;BME280;66124;51.146;17.072;2023-08-30T11:00:18;99350.41;;;16.74;78.60
77153;BME280;66124;51.146;17.072;2023-08-30T11:02:49;99351.38;;;16.72;78.47
77153;BME280;66124;51.146;17.072;2023-08-30T11:05:20;99352.87;;;16.71;78.17
77153;BME280;66124;51.146;17.072;2023-08-30T11:07:50;99352.90;;;16.70;78.29
77153;BME280;66124;51.146;17.072;2023-08-30T11:10:21;99354.16;;;16.69;78.06
77153;BME280;66124;51.146;17.072;2023-08-30T11:12:51;99350.22;;;16.69;78.15
77153;BME280;66124;51.146;17.072;2023-08-30T11:15:20;99342.89;;;16.70;78.12
77153;BME280;66124;51.146;17.072;2023-08-30T11:17:50;99348.23;;;16.74;78.32
77153;BME280;66124;51.146;17.072;2023-08-30T11:20:20;99346.34;;;16.76;78.07
77153;BME280;66124;51.146;17.072;2023-08-30T11:22:50;99350.89;;;16.74;78.10
77153;BME280;66124;51.146;17.072;2023-08-30T11:25:18;99355.22;;;16.69;77.66
77153;BME280;66124;51.146;17.072;2023-08-30T11:32:36;99353.63;;;16.72;77.84
77153;BME280;66124;51.146;17.072;2023-08-30T11:35:08;99343.86;;;16.90;77.63
77153;BME280;66124;51.146;17.072;2023-08-30T11:37:37;99349.70;;;17.16;77.70
77153;BME280;66124;51.146;17.072;2023-08-30T11:40:09;99347.69;;;17.40;77.40
77153;BME280;66124;51.146;17.072;2023-08-30T11:42:40;99341.91;;;17.68;76.78
77153;BME280;66124;51.146;17.072;2023-08-30T11:45:13;99338.48;;;17.99;75.74
77153;BME280;66124;51.146;17.072;2023-08-30T11:47:43;99332.84;;;18.34;75.14
77153;BME280;66124;51.146;17.072;2023-08-30T11:50:13;99331.33;;;18.72;74.95
77153;BME280;66124;51.146;17.072;2023-08-30T11:52:43;99328.31;;;19.09;74.01
77153;BME280;66124;51.146;17.072;2023-08-30T11:55:12;99334.64;;;19.33;72.59
77153;BME280;66124;51.146;17.072;2023-08-30T11:57:44;99332.19;;;19.40;71.50
77153;BME280;66124;51.146;17.072;2023-08-30T12:00:13;99333.77;;;19.37;71.10
77153;BME280;66124;51.146;17.072;2023-08-30T12:02:43;99336.11;;;19.31;71.30
77153;BME280;66124;51.146;17.072;2023-08-30T12:05:13;99336.86;;;19.29;71.20
77153;BME280;66124;51.146;17.072;2023-08-30T12:07:45;99342.13;;;19.21;70.55
77153;BME280;66124;51.146;17.072;2023-08-30T12:10:18;99343.80;;;19.01;70.40
77153;BME280;66124;51.146;17.072;2023-08-30T12:12:48;99346.19;;;18.74;70.28
77153;BME280;66124;51.146;17.072;2023-08-30T12:15:17;99347.45;;;18.46;70.72
77153;BME280;66124;51.146;17.072;2023-08-30T12:17:47;99352.77;;;18.16;70.78
77153;BME280;66124;51.146;17.072;2023-08-30T12:20:19;99355.56;;;17.88;71.21
77153;BME280;66124;51.146;17.072;2023-08-30T12:22:49;99351.16;;;17.65;71.71
77153;BME280;66124;51.146;17.072;2023-08-30T12:25:20;99353.15;;;17.45;72.04
77153;BME280;66124;51.146;17.072;2023-08-30T12:27:50;99346.49;;;17.31;72.45
77153;BME280;66124;51.146;17.072;2023-08-30T12:30:19;99347.73;;;17.22;72.61
77153;BME280;66124;51.146;17.072;2023-08-30T12:32:49;99348.27;;;17.22;72.97
77153;BME280;66124;51.146;17.072;2023-08-30T12:35:19;99345.80;;;17.32;73.25
77153;BME280;66124;51.146;17.072;2023-08-30T12:37:48;99343.45;;;17.52;73.56
77153;BME280;66124;51.146;17.072;2023-08-30T12:40:17;99339.02;;;17.78;73.28
77153;BME280;66124;51.146;17.072;2023-08-30T12:42:45;99337.28;;;18.02;73.15
77153;BME280;66124;51.146;17.072;2023-08-30T12:45:13;99333.77;;;18.20;72.82
77153;BME280;66124;51.146;17.072;2023-08-30T12:48:05;99328.55;;;18.33;72.31
77153;BME280;66124;51.146;17.072;2023-08-30T12:50:35;99332.34;;;18.32;72.16
77153;BME280;66124;51.146;17.072;2023-08-30T12:53:04;99333.09;;;18.23;71.96
77153;BME280;66124;51.146;17.072;2023-08-30T12:55:34;99341.88;;;18.06;71.68
77153;BME280;66124;51.146;17.072;2023-08-30T12:58:04;99328.25;;;17.80;72.05
77153;BME280;66124;51.146;17.072;2023-08-30T13:00:34;99345.98;;;17.75;72.38
77153;BME280;66124;51.146;17.072;2023-08-30T13:03:04;99347.48;;;17.64;72.42
77153;BME280;66124;51.146;17.072;2023-08-30T13:05:34;99341.63;;;17.52;72.64
77153;BME280;66124;51.146;17.072;2023-08-30T13:08:04;99344.98;;;17.40;72.94
77153;BME280;66124;51.146;17.072;2023-08-30T13:10:33;99344.27;;;17.36;72.99
77153;BME280;66124;51.146;17.072;2023-08-30T13:13:02;99337.55;;;17.36;72.91
77153;BME280;66124;51.146;17.072;2023-08-30T13:15:32;99336.41;;;17.42;72.91
77153;BME280;66124;51.146;17.072;2023-08-30T13:18:01;99333.66;;;17.57;72.71
77153;BME280;66124;51.146;17.072;2023-08-30T13:20:31;99334.91;;;17.79;72.63
77153;BME280;66124;51.146;17.072;2023-08-30T13:23:00;99335.17;;;18.00;72.50
77153;BME280;66124;51.146;17.072;2023-08-30T13:25:30;99335.66;;;18.10;72.11
77153;BME280;66124;51.146;17.072;2023-08-30T13:27:59;99333.98;;;18.11;72.15
77153;BME280;66124;51.146;17.072;2023-08-30T13:30:29;99344.06;;;18.06;72.02
77153;BME280;66124;51.146;17.072;2023-08-30T13:32:58;99330.63;;;17.95;71.95
77153;BME280;66124;51.146;17.072;2023-08-30T13:35:27;99335.30;;;17.84;72.21
77153;BME280;66124;51.146;17.072;2023-08-30T13:37:57;99341.41;;;17.78;72.48
77153;BME280;66124;51.146;17.072;2023-08-30T13:40:26;99342.34;;;17.80;72.48
77153;BME280;66124;51.146;17.072;2023-08-30T13:42:56;99342.96;;;17.86;72.30
77153;BME280;66124;51.146;17.072;2023-08-30T13:45:25;99344.20;;;17.92;72.04
77153;BME280;66124;51.146;17.072;2023-08-30T13:47:55;99341.11;;;18.06;71.83
77153;BME280;66124;51.146;17.072;2023-08-30T13:50:24;99338.15;;;18.22;71.71
77153;BME280;66124;51.146;17.072;2023-08-30T13:52:53;99331.03;;;18.35;71.29
77153;BME280;66124;51.146;17.072;2023-08-30T13:55:23;99333.45;;;18.41;71.23
77153;BME280;66124;51.146;17.072;2023-08-30T13:57:53;99335.73;;;18.40;70.97
77153;BME280;66124;51.146;17.072;2023-08-30T14:00:21;99336.70;;;18.31;71.00
77153;BME280;66124;51.146;17.072;2023-08-30T14:12:42;99342.66;;;17.89;71.42